Time;durP1;ratioP1;P1;durP2;ratioP2;P2;SDS_P1;SDS_P2;PMS_P1;PMS_P2;Temp;Humidity;BMP_temperature;BMP_pressure;BME280_temperature;BME280_humidity;BME280_pressure;Samples;Min_cycle;Max_cycle;Signal;HPM_P1;HPM_P2
2024/04/09 00:01:17;;;;;;;9.02;7.07;;;;;;;;;;4991279;28;21293;-78
2024/04/09 00:03:43;;;;;;;10.80;6.57;;;;;;;;;;4987830;28;20038;-77
2024/04/09 00:06:15;;;;;;;7.75;6.93;;;;;;;;;;4989217;28;20119;-77
2024/04/09 00:08:42;;;;;;;8.30;7.18;;;;;;;;;;4988685;28;20088;-77
2024/04/09 00:11:24;;;;;;;8.60;6.82;;;;;;;;;;4980784;28;20058;-77
2024/04/09 00:13:51;;;;;;;8.15;7.38;;;;;;;;;;4984691;28;20058;-77
2024/04/09 00:16:22;;;;;;;9.88;7.43;;;;;;;;;;4989212;28;20403;-77
2024/04/09 00:18:49;;;;;;;8.98;7.45;;;;;;;;;;4985000;28;20045;-77
2024/04/09 00:21:15;;;;;;;8.65;7.20;;;;;;;;;;4987890;28;20041;-78
2024/04/09 00:23:41;;;;;;;11.40;8.10;;;;;;;;;;4988323;28;20042;-77
2024/04/09 00:26:08;;;;;;;8.32;7.57;;;;;;;;;;4989448;28;20038;-75
2024/04/09 00:28:34;;;;;;;13.35;6.85;;;;;;;;;;4989424;28;20565;-76
2024/04/09 00:31:01;;;;;;;10.05;6.25;;;;;;;;;;4989280;28;20070;-76
2024/04/09 00:33:27;;;;;;;9.90;6.82;;;;;;;;;;4986796;28;20435;-76
2024/04/09 00:35:53;;;;;;;9.73;6.43;;;;;;;;;;4987850;28;20049;-75
2024/04/09 00:38:23;;;;;;;7.38;6.18;;;;;;;;;;4988792;28;20034;-75
2024/04/09 00:40:49;;;;;;;9.30;6.97;;;;;;;;;;4988137;28;20093;-77
2024/04/09 00:43:15;;;;;;;9.00;6.47;;;;;;;;;;4990071;28;20042;-78
2024/04/09 00:45:44;;;;;;;6.18;5.68;;;;;;;;;;4984962;28;20042;-77
2024/04/09 00:48:11;;;;;;;7.88;7.07;;;;;;;;;;4989212;28;20036;-78
2024/04/09 00:50:41;;;;;;;6.90;6.22;;;;;;;;;;4989995;28;20039;-77
2024/04/09 00:53:08;;;;;;;10.95;5.85;;;;;;;;;;4980114;28;20042;-77
2024/04/09 00:55:33;;;;;;;9.10;6.53;;;;;;;;;;4990779;28;20422;-78
2024/04/09 00:58:00;;;;;;;8.52;6.75;;;;;;;;;;4988673;28;20031;-77
2024/04/09 01:00:27;;;;;;;8.45;7.10;;;;;;;;;;4987029;28;20047;-77
2024/04/09 01:02:53;;;;;;;13.63;7.25;;;;;;;;;;4987956;28;20387;-78
2024/04/09 01:05:19;;;;;;;6.72;6.03;;;;;;;;;;4994437;28;20041;-76
2024/04/09 01:07:45;;;;;;;7.55;6.85;;;;;;;;;;4996664;28;20194;-77
2024/04/09 01:10:11;;;;;;;8.93;6.50;;;;;;;;;;5001929;28;20034;-76
2024/04/09 01:12:37;;;;;;;9.73;7.50;;;;;;;;;;4990978;28;20137;-73
2024/04/09 01:15:04;;;;;;;8.95;6.82;;;;;;;;;;4989277;28;20641;-76
2024/04/09 01:17:34;;;;;;;8.50;7.57;;;;;;;;;;4987022;28;20053;-76
2024/04/09 01:20:00;;;;;;;11.70;7.35;;;;;;;;;;4989095;28;20042;-76
2024/04/09 01:22:27;;;;;;;8.35;7.40;;;;;;;;;;4991208;28;20034;-75
2024/04/09 01:24:53;;;;;;;8.32;7.53;;;;;;;;;;4990880;28;20045;-75
2024/04/09 01:27:19;;;;;;;11.57;8.00;;;;;;;;;;4993461;28;20407;-75
2024/04/09 01:29:45;;;;;;;9.73;8.77;;;;;;;;;;4992273;28;20774;-75
2024/04/09 01:32:12;;;;;;;9.98;8.85;;;;;;;;;;4992038;28;20046;-76
2024/04/09 01:34:38;;;;;;;12.52;8.43;;;;;;;;;;4991108;28;20046;-75
2024/04/09 01:37:04;;;;;;;9.95;8.30;;;;;;;;;;4992292;28;20073;-76
2024/04/09 01:39:30;;;;;;;18.77;9.45;;;;;;;;;;4991831;28;20026;-76
2024/04/09 01:41:56;;;;;;;12.10;8.02;;;;;;;;;;4992069;28;20046;-76
2024/04/09 01:44:22;;;;;;;9.98;8.85;;;;;;;;;;4989785;28;20046;-75
2024/04/09 01:46:48;;;;;;;13.77;8.55;;;;;;;;;;4990966;28;20026;-76
2024/04/09 01:49:15;;;;;;;11.75;8.80;;;;;;;;;;4991604;28;20034;-76
2024/04/09 01:51:41;;;;;;;15.27;10.15;;;;;;;;;;4991284;28;20050;-76
2024/04/09 01:54:07;;;;;;;11.20;9.15;;;;;;;;;;4990500;28;20108;-76
2024/04/09 01:56:33;;;;;;;14.43;9.38;;;;;;;;;;4990341;28;20062;-77
2024/04/09 01:59:01;;;;;;;13.90;9.20;;;;;;;;;;4991634;28;20041;-75
2024/04/09 02:01:27;;;;;;;13.43;10.15;;;;;;;;;;4991323;28;20084;-76
2024/04/09 02:03:56;;;;;;;18.02;9.90;;;;;;;;;;4991347;28;20038;-75
2024/04/09 02:06:22;;;;;;;13.70;9.70;;;;;;;;;;4990620;28;20042;-76
2024/04/09 02:08:48;;;;;;;11.48;9.77;;;;;;;;;;4990427;28;20046;-75
2024/04/09 02:11:13;;;;;;;11.00;9.90;;;;;;;;;;4986949;28;20455;-76
2024/04/09 02:13:42;;;;;;;11.45;9.38;;;;;;;;;;4986318;28;20088;-75
2024/04/09 02:16:08;;;;;;;11.10;9.98;;;;;;;;;;4991127;28;20045;-75
2024/04/09 02:18:35;;;;;;;17.27;11.02;;;;;;;;;;5008255;28;20035;-74
2024/04/09 02:21:22;;;;;;;12.05;10.85;;;;;;;;;;4975147;28;20482;-77
2024/04/09 02:23:51;;;;;;;14.98;10.10;;;;;;;;;;4991020;28;20042;-76
2024/04/09 02:26:17;;;;;;;12.88;10.55;;;;;;;;;;4991091;28;20054;-78
2024/04/09 02:28:43;;;;;;;13.40;10.88;;;;;;;;;;4990657;28;20450;-76
2024/04/09 02:31:09;;;;;;;11.80;8.63;;;;;;;;;;4991095;28;20034;-77
2024/04/09 02:33:35;;;;;;;14.43;9.82;;;;;;;;;;4988754;28;20646;-77
2024/04/09 02:36:01;;;;;;;12.25;10.00;;;;;;;;;;4990914;28;20116;-77
2024/04/09 02:38:28;;;;;;;13.13;10.25;;;;;;;;;;4991332;28;20049;-77
2024/04/09 02:40:54;;;;;;;15.63;10.45;;;;;;;;;;4991350;28;20053;-76
2024/04/09 02:43:21;;;;;;;14.32;10.35;;;;;;;;;;4989859;28;20046;-76
2024/04/09 02:45:48;;;;;;;14.85;10.52;;;;;;;;;;4991173;28;20038;-76
2024/04/09 02:48:15;;;;;;;12.85;10.00;;;;;;;;;;4990111;28;20034;-77
2024/04/09 02:50:42;;;;;;;12.23;10.20;;;;;;;;;;4990406;28;20054;-76
2024/04/09 02:53:09;;;;;;;13.40;9.95;;;;;;;;;;4988500;28;20077;-77
2024/04/09 02:55:36;;;;;;;14.52;9.75;;;;;;;;;;4990844;28;20060;-77
2024/04/09 02:58:03;;;;;;;13.82;10.32;;;;;;;;;;4989147;28;20035;-77
2024/04/09 03:00:30;;;;;;;13.68;9.82;;;;;;;;;;4990338;28;20109;-78
2024/04/09 03:03:00;;;;;;;14.55;9.50;;;;;;;;;;4989765;28;20041;-78
2024/04/09 03:05:29;;;;;;;12.70;9.55;;;;;;;;;;4990718;28;20760;-77
2024/04/09 03:07:55;;;;;;;15.20;9.65;;;;;;;;;;4990690;28;20034;-76
2024/04/09 03:10:21;;;;;;;10.32;9.32;;;;;;;;;;4990809;28;20057;-77
2024/04/09 03:12:48;;;;;;;10.15;9.15;;;;;;;;;;4988550;28;20108;-75
2024/04/09 03:15:13;;;;;;;10.30;9.35;;;;;;;;;;4989141;28;20050;-77
2024/04/09 03:17:43;;;;;;;9.90;8.73;;;;;;;;;;4991306;28;20034;-77
2024/04/09 03:20:12;;;;;;;13.65;9.40;;;;;;;;;;4990344;28;20027;-75
2024/04/09 03:22:38;;;;;;;11.57;9.20;;;;;;;;;;4987646;28;20399;-76
2024/04/09 03:25:05;;;;;;;10.43;8.95;;;;;;;;;;4990200;28;20406;-76
2024/04/09 03:27:33;;;;;;;15.05;9.55;;;;;;;;;;4988140;28;20045;-76
2024/04/09 03:29:59;;;;;;;14.88;9.60;;;;;;;;;;4990529;28;22366;-74
2024/04/09 03:32:25;;;;;;;10.90;9.85;;;;;;;;;;4990390;28;20086;-76
2024/04/09 03:34:51;;;;;;;13.20;10.52;;;;;;;;;;4987717;28;20042;-76
2024/04/09 03:37:17;;;;;;;11.35;10.27;;;;;;;;;;4988843;28;20507;-76
2024/04/09 03:39:43;;;;;;;10.40;9.40;;;;;;;;;;4989425;28;20092;-76
2024/04/09 03:42:09;;;;;;;12.43;8.50;;;;;;;;;;4991665;28;20038;-78
2024/04/09 03:44:35;;;;;;;12.32;8.15;;;;;;;;;;4986330;28;20079;-78
2024/04/09 03:47:04;;;;;;;9.98;8.30;;;;;;;;;;4989122;28;20034;-76
2024/04/09 03:49:35;;;;;;;9.18;8.27;;;;;;;;;;4984064;28;20037;-77
2024/04/09 03:52:02;;;;;;;9.07;8.02;;;;;;;;;;4989890;28;20108;-77
2024/04/09 03:54:27;;;;;;;10.32;7.25;;;;;;;;;;4987430;28;20050;-76
2024/04/09 03:56:53;;;;;;;9.80;7.20;;;;;;;;;;4989303;28;20045;-74
2024/04/09 03:59:19;;;;;;;8.02;7.25;;;;;;;;;;4988368;28;20117;-73
2024/04/09 04:01:45;;;;;;;7.70;6.28;;;;;;;;;;4987933;28;20030;-73
2024/04/09 04:04:13;;;;;;;9.43;7.10;;;;;;;;;;4972086;28;20050;-76
2024/04/09 04:06:39;;;;;;;8.77;6.40;;;;;;;;;;4984304;28;20069;-76
2024/04/09 04:09:05;;;;;;;12.38;7.20;;;;;;;;;;4986762;28;20491;-76
2024/04/09 04:11:31;;;;;;;12.05;6.70;;;;;;;;;;4987389;28;20034;-76
2024/04/09 04:13:57;;;;;;;6.43;5.40;;;;;;;;;;5002814;28;20069;-76
2024/04/09 04:16:23;;;;;;;7.03;6.32;;;;;;;;;;4990217;28;20034;-76
2024/04/09 04:18:49;;;;;;;6.10;5.50;;;;;;;;;;4987805;28;20433;-75
2024/04/09 04:21:15;;;;;;;6.82;6.15;;;;;;;;;;4989139;28;20041;-76
2024/04/09 04:23:42;;;;;;;7.60;6.35;;;;;;;;;;4986394;28;20077;-77
2024/04/09 04:26:08;;;;;;;5.70;5.20;;;;;;;;;;4988917;28;20062;-75
2024/04/09 04:28:37;;;;;;;6.00;5.50;;;;;;;;;;4990032;28;20382;-76
2024/04/09 04:31:07;;;;;;;7.35;6.70;;;;;;;;;;4987777;28;20042;-74
2024/04/09 04:33:33;;;;;;;6.60;6.00;;;;;;;;;;4989411;28;20062;-75
2024/04/09 04:35:59;;;;;;;5.63;5.22;;;;;;;;;;5005696;28;20038;-74
2024/04/09 04:38:25;;;;;;;6.72;6.07;;;;;;;;;;4992608;28;20034;-74
2024/04/09 04:40:50;;;;;;;8.82;7.93;;;;;;;;;;4991231;28;20410;-73
2024/04/09 04:43:16;;;;;;;10.82;9.32;;;;;;;;;;4989730;28;20038;-76
2024/04/09 04:45:42;;;;;;;6.28;5.85;;;;;;;;;;4988734;28;20100;-74
2024/04/09 04:48:08;;;;;;;7.43;6.82;;;;;;;;;;4988770;28;20557;-74
2024/04/09 04:50:34;;;;;;;8.23;6.50;;;;;;;;;;4987740;28;20038;-74
2024/04/09 04:53:01;;;;;;;9.88;5.93;;;;;;;;;;4987724;28;21462;-73
2024/04/09 04:55:27;;;;;;;6.10;5.50;;;;;;;;;;4973607;28;20033;-73
2024/04/09 04:57:53;;;;;;;10.90;5.72;;;;;;;;;;4992542;28;20030;-74
2024/04/09 05:00:19;;;;;;;6.82;6.10;;;;;;;;;;4972221;28;20035;-74
2024/04/09 05:02:44;;;;;;;6.18;5.40;;;;;;;;;;4986251;28;20073;-74
2024/04/09 05:05:12;;;;;;;7.28;5.47;;;;;;;;;;4991452;28;20418;-74
2024/04/09 05:07:38;;;;;;;10.32;5.68;;;;;;;;;;4992381;28;20026;-74
2024/04/09 05:10:04;;;;;;;6.53;5.63;;;;;;;;;;4990183;28;20065;-75
2024/04/09 05:12:32;;;;;;;6.95;5.22;;;;;;;;;;4987699;28;20042;-75
2024/04/09 05:14:58;;;;;;;6.07;5.47;;;;;;;;;;4990443;28;20469;-75
2024/04/09 05:17:24;;;;;;;9.32;5.82;;;;;;;;;;4974276;28;20173;-75
2024/04/09 05:19:50;;;;;;;6.70;5.30;;;;;;;;;;4991322;28;20026;-75
2024/04/09 05:22:24;;;;;;;6.95;6.13;;;;;;;;;;4976465;28;20045;-75
2024/04/09 05:24:51;;;;;;;8.25;6.20;;;;;;;;;;4995915;28;20047;-78
2024/04/09 05:27:17;;;;;;;9.38;5.68;;;;;;;;;;4985774;28;20177;-78
2024/04/09 05:29:43;;;;;;;7.28;6.05;;;;;;;;;;4986512;28;20104;-77
2024/04/09 05:32:09;;;;;;;8.35;6.32;;;;;;;;;;4968309;28;20046;-77
2024/04/09 05:34:35;;;;;;;6.60;5.53;;;;;;;;;;4991904;28;20038;-75
2024/04/09 05:37:01;;;;;;;6.97;5.15;;;;;;;;;;4990432;28;20118;-77
2024/04/09 05:39:26;;;;;;;10.32;6.63;;;;;;;;;;4991553;28;20057;-77
2024/04/09 05:41:52;;;;;;;15.48;6.65;;;;;;;;;;4989809;28;20038;-78
2024/04/09 05:44:18;;;;;;;8.23;5.68;;;;;;;;;;4983069;28;20034;-77
2024/04/09 05:46:45;;;;;;;6.63;6.03;;;;;;;;;;4991758;28;20041;-79
2024/04/09 05:49:11;;;;;;;10.57;6.47;;;;;;;;;;4991574;28;20034;-79
2024/04/09 05:51:37;;;;;;;9.82;7.15;;;;;;;;;;4989838;28;20125;-79
2024/04/09 05:54:03;;;;;;;7.93;6.15;;;;;;;;;;4990779;28;20450;-79
2024/04/09 05:56:29;;;;;;;7.22;5.82;;;;;;;;;;4993215;28;20537;-80
2024/04/09 05:58:55;;;;;;;11.05;5.97;;;;;;;;;;4979358;28;20116;-77
2024/04/09 06:01:20;;;;;;;8.85;6.70;;;;;;;;;;4994151;28;20026;-77
2024/04/09 06:03:46;;;;;;;7.50;6.80;;;;;;;;;;4989298;28;20117;-77
2024/04/09 06:06:12;;;;;;;9.88;6.95;;;;;;;;;;4989476;28;20594;-76
2024/04/09 06:08:38;;;;;;;8.48;6.90;;;;;;;;;;4991232;28;20453;-77
2024/04/09 06:11:04;;;;;;;8.07;7.20;;;;;;;;;;4991310;28;20400;-75
2024/04/09 06:13:30;;;;;;;7.93;6.07;;;;;;;;;;4993320;28;20054;-79
2024/04/09 06:15:56;;;;;;;7.35;5.53;;;;;;;;;;4974076;28;20043;-74
2024/04/09 06:18:21;;;;;;;9.77;6.07;;;;;;;;;;4972490;28;20130;-76
2024/04/09 06:20:47;;;;;;;7.28;6.43;;;;;;;;;;4973939;28;20031;-76
2024/04/09 06:23:13;;;;;;;9.15;5.53;;;;;;;;;;4973441;28;20095;-78
2024/04/09 06:25:39;;;;;;;7.38;5.80;;;;;;;;;;4971081;28;20185;-76
2024/04/09 06:28:05;;;;;;;9.82;5.95;;;;;;;;;;4969011;28;20082;-76
2024/04/09 06:30:31;;;;;;;15.02;8.93;;;;;;;;;;4985690;28;20265;-76
2024/04/09 06:32:57;;;;;;;8.32;6.22;;;;;;;;;;4966011;28;20283;-78
2024/04/09 06:35:23;;;;;;;12.18;5.60;;;;;;;;;;4977608;28;20472;-77
2024/04/09 06:37:49;;;;;;;7.03;5.30;;;;;;;;;;4971233;28;20124;-75
2024/04/09 06:40:15;;;;;;;9.52;5.75;;;;;;;;;;4968548;28;20042;-77
2024/04/09 06:42:41;;;;;;;12.23;6.35;;;;;;;;;;4969791;28;20031;-76
2024/04/09 06:45:07;;;;;;;21.30;8.40;;;;;;;;;;4970943;28;20061;-77
2024/04/09 06:47:33;;;;;;;9.82;8.80;;;;;;;;;;4971601;28;20496;-76
2024/04/09 06:50:04;;;;;;;13.40;5.88;;;;;;;;;;4970999;28;20112;-78
2024/04/09 06:52:31;;;;;;;12.30;6.18;;;;;;;;;;4970621;28;20042;-77
2024/04/09 06:54:56;;;;;;;9.57;5.60;;;;;;;;;;4966602;28;20046;-77
2024/04/09 06:57:22;;;;;;;6.40;5.53;;;;;;;;;;4969144;28;20039;-76
2024/04/09 06:59:48;;;;;;;10.32;6.90;;;;;;;;;;4985118;28;20038;-75
2024/04/09 07:02:14;;;;;;;9.73;6.03;;;;;;;;;;4970273;28;20045;-76
2024/04/09 07:04:39;;;;;;;7.85;5.57;;;;;;;;;;4970493;28;20034;-74
2024/04/09 07:07:05;;;;;;;12.55;6.20;;;;;;;;;;4970365;28;20511;-74
2024/04/09 07:09:31;;;;;;;9.05;6.00;;;;;;;;;;4970220;28;20121;-75
2024/04/09 07:11:57;;;;;;;9.80;5.35;;;;;;;;;;4968767;28;20125;-73
2024/04/09 07:14:23;;;;;;;11.35;5.70;;;;;;;;;;4974789;28;20133;-76
2024/04/09 07:16:49;;;;;;;6.97;6.10;;;;;;;;;;4987780;28;20045;-77
2024/04/09 07:19:15;;;;;;;7.15;5.30;;;;;;;;;;4965173;28;20108;-80
2024/04/09 07:21:41;;;;;;;6.60;5.38;;;;;;;;;;4986378;28;20038;-77
2024/04/09 07:24:07;;;;;;;8.68;5.60;;;;;;;;;;4986393;28;20545;-77
2024/04/09 07:26:33;;;;;;;7.30;5.50;;;;;;;;;;4987135;28;20574;-78
2024/04/09 07:28:58;;;;;;;8.13;5.22;;;;;;;;;;4986765;28;20306;-77
2024/04/09 07:31:24;;;;;;;10.10;4.88;;;;;;;;;;4988003;28;20453;-74
2024/04/09 07:33:51;;;;;;;10.73;4.90;;;;;;;;;;4984618;28;20068;-77
2024/04/09 07:36:17;;;;;;;9.07;5.00;;;;;;;;;;4988009;28;20088;-76
2024/04/09 07:39:03;;;;;;;11.73;5.53;;;;;;;;;;5002636;28;20542;-77
2024/04/09 07:41:29;;;;;;;12.98;5.25;;;;;;;;;;4999151;28;20038;-78
2024/04/09 07:43:55;;;;;;;6.57;4.75;;;;;;;;;;4988899;28;20042;-77
2024/04/09 07:46:22;;;;;;;8.90;5.45;;;;;;;;;;4989903;28;20042;-76
2024/04/09 07:48:48;;;;;;;6.82;5.18;;;;;;;;;;4990284;28;20031;-77
2024/04/09 07:51:14;;;;;;;9.00;5.68;;;;;;;;;;4990037;28;20037;-77
2024/04/09 07:53:40;;;;;;;7.63;5.85;;;;;;;;;;4988277;28;20058;-76
2024/04/09 07:56:06;;;;;;;7.95;5.13;;;;;;;;;;4990736;28;20125;-77
2024/04/09 07:58:32;;;;;;;9.95;6.00;;;;;;;;;;4991383;28;20046;-76
2024/04/09 08:00:59;;;;;;;11.18;6.57;;;;;;;;;;4991827;28;20431;-76
2024/04/09 08:03:26;;;;;;;10.68;5.60;;;;;;;;;;4994072;28;20031;-77
2024/04/09 08:05:51;;;;;;;10.63;5.65;;;;;;;;;;4993754;28;20068;-77
2024/04/09 08:08:18;;;;;;;12.52;5.57;;;;;;;;;;4994178;28;20035;-77
2024/04/09 08:10:43;;;;;;;12.45;6.30;;;;;;;;;;4988409;28;20495;-77
2024/04/09 08:13:10;;;;;;;7.22;5.57;;;;;;;;;;4989443;28;20115;-77
2024/04/09 08:15:36;;;;;;;9.40;5.60;;;;;;;;;;4989501;28;20097;-77
2024/04/09 08:18:02;;;;;;;6.43;5.32;;;;;;;;;;4972627;28;20042;-77
2024/04/09 08:20:28;;;;;;;16.35;12.57;;;;;;;;;;4989370;28;20034;-76
2024/04/09 08:22:54;;;;;;;11.88;6.43;;;;;;;;;;4987101;28;20410;-77
2024/04/09 08:25:20;;;;;;;12.63;6.63;;;;;;;;;;4972180;28;20038;-76
2024/04/09 08:27:46;;;;;;;11.50;6.40;;;;;;;;;;4972081;28;20066;-78
2024/04/09 08:30:13;;;;;;;12.23;6.40;;;;;;;;;;4989849;28;20034;-78
2024/04/09 08:32:39;;;;;;;11.90;6.63;;;;;;;;;;4988295;28;20445;-76
2024/04/09 08:35:05;;;;;;;11.25;6.43;;;;;;;;;;4988038;28;20124;-77
2024/04/09 08:37:31;;;;;;;10.20;6.53;;;;;;;;;;5005285;28;20034;-77
2024/04/09 08:39:57;;;;;;;8.60;6.22;;;;;;;;;;4985538;28;20034;-77
2024/04/09 08:42:29;;;;;;;10.82;6.85;;;;;;;;;;4989969;28;20085;-77
2024/04/09 08:44:55;;;;;;;10.68;5.90;;;;;;;;;;4987923;28;20568;-76
2024/04/09 08:47:22;;;;;;;9.43;5.20;;;;;;;;;;4990313;28;20034;-77
2024/04/09 08:49:48;;;;;;;14.73;6.30;;;;;;;;;;4988464;28;20703;-76
2024/04/09 08:52:15;;;;;;;15.07;6.10;;;;;;;;;;4991280;28;20136;-77
2024/04/09 08:54:41;;;;;;;10.10;6.13;;;;;;;;;;4985435;28;20507;-76
2024/04/09 08:57:08;;;;;;;9.80;6.53;;;;;;;;;;4988237;28;20041;-78
2024/04/09 08:59:34;;;;;;;9.23;6.10;;;;;;;;;;4989253;28;20026;-77
2024/04/09 09:02:03;;;;;;;7.70;5.57;;;;;;;;;;4987156;28;20039;-78
2024/04/09 09:04:36;;;;;;;8.40;5.60;;;;;;;;;;4987989;28;20046;-78
2024/04/09 09:07:18;;;;;;;12.73;6.35;;;;;;;;;;4988475;28;20045;-77
2024/04/09 09:09:44;;;;;;;8.38;5.65;;;;;;;;;;4987445;28;20035;-78
2024/04/09 09:12:10;;;;;;;15.30;6.20;;;;;;;;;;4983862;28;20066;-78
2024/04/09 09:14:36;;;;;;;10.27;5.90;;;;;;;;;;4980892;28;20089;-78
2024/04/09 09:17:05;;;;;;;7.55;6.00;;;;;;;;;;4988701;28;20293;-77
2024/04/09 09:19:33;;;;;;;8.40;5.07;;;;;;;;;;4990065;28;20031;-78
2024/04/09 09:22:01;;;;;;;8.20;5.72;;;;;;;;;;4971558;28;20125;-77
2024/04/09 09:24:28;;;;;;;8.50;4.97;;;;;;;;;;4987445;28;20054;-77
2024/04/09 09:26:58;;;;;;;7.60;5.15;;;;;;;;;;4986679;28;20042;-77
2024/04/09 09:29:24;;;;;;;8.60;5.43;;;;;;;;;;4986409;28;20027;-78
2024/04/09 09:31:50;;;;;;;9.02;5.15;;;;;;;;;;4984751;28;20089;-78
2024/04/09 09:34:21;;;;;;;6.60;4.68;;;;;;;;;;4989100;28;20078;-78
2024/04/09 09:36:47;;;;;;;7.80;5.43;;;;;;;;;;4983973;28;20042;-77
2024/04/09 09:39:14;;;;;;;12.65;6.55;;;;;;;;;;4988623;28;20046;-78
2024/04/09 09:41:43;;;;;;;11.45;5.60;;;;;;;;;;4989934;28;20561;-77
2024/04/09 09:44:10;;;;;;;7.13;6.00;;;;;;;;;;4982960;28;20050;-77
2024/04/09 09:46:36;;;;;;;7.68;6.05;;;;;;;;;;4988838;28;20285;-78
2024/04/09 09:49:02;;;;;;;14.93;5.38;;;;;;;;;;4991286;28;20092;-77
2024/04/09 09:51:29;;;;;;;5.93;4.78;;;;;;;;;;4990798;28;20121;-77
2024/04/09 09:53:55;;;;;;;7.53;5.20;;;;;;;;;;4990870;28;20110;-77
2024/04/09 09:56:21;;;;;;;7.72;4.68;;;;;;;;;;4991143;28;20027;-77
2024/04/09 09:58:48;;;;;;;9.13;4.45;;;;;;;;;;4991907;28;20114;-78
2024/04/09 10:01:14;;;;;;;10.25;5.00;;;;;;;;;;4993373;28;20125;-77
2024/04/09 10:03:40;;;;;;;6.25;4.95;;;;;;;;;;4986326;28;20486;-76
2024/04/09 10:06:07;;;;;;;7.72;4.40;;;;;;;;;;4990567;28;20050;-77
2024/04/09 10:08:34;;;;;;;11.27;4.72;;;;;;;;;;4992277;28;20088;-77
2024/04/09 10:11:00;;;;;;;10.23;4.90;;;;;;;;;;4990405;28;20038;-77
2024/04/09 10:13:28;;;;;;;9.13;5.43;;;;;;;;;;4988847;28;20137;-78
2024/04/09 10:15:57;;;;;;;5.45;4.88;;;;;;;;;;4990716;28;20518;-78
2024/04/09 10:18:37;;;;;;;6.13;4.63;;;;;;;;;;4992575;28;20030;-76
2024/04/09 10:21:03;;;;;;;6.75;4.70;;;;;;;;;;4992887;28;20037;-77
2024/04/09 10:23:29;;;;;;;11.95;5.47;;;;;;;;;;4989701;28;20046;-77
2024/04/09 10:25:55;;;;;;;8.13;6.57;;;;;;;;;;4993991;28;20388;-78
2024/04/09 10:28:27;;;;;;;8.80;5.80;;;;;;;;;;4995518;28;20034;-76
2024/04/09 10:30:53;;;;;;;6.00;5.40;;;;;;;;;;4991366;28;20173;-77
2024/04/09 10:33:33;;;;;;;8.93;5.38;;;;;;;;;;4989563;28;20081;-77
2024/04/09 10:35:59;;;;;;;7.88;5.68;;;;;;;;;;4990066;28;20077;-77
2024/04/09 10:38:25;;;;;;;13.07;5.90;;;;;;;;;;4988695;28;20030;-78
2024/04/09 10:40:51;;;;;;;13.98;6.38;;;;;;;;;;4989632;28;20049;-78
2024/04/09 10:43:17;;;;;;;9.55;6.15;;;;;;;;;;4991403;28;20427;-78
2024/04/09 10:45:43;;;;;;;12.18;5.20;;;;;;;;;;4991816;28;20058;-77
2024/04/09 10:48:09;;;;;;;6.50;4.88;;;;;;;;;;4986406;28;20034;-77
2024/04/09 10:50:35;;;;;;;9.02;5.55;;;;;;;;;;4985684;28;20026;-78
2024/04/09 10:53:02;;;;;;;7.25;5.13;;;;;;;;;;4988909;28;20065;-77
2024/04/09 10:55:28;;;;;;;5.47;4.97;;;;;;;;;;4992587;28;20574;-77
2024/04/09 10:57:54;;;;;;;6.10;4.80;;;;;;;;;;4990750;28;20529;-78
2024/04/09 11:00:21;;;;;;;10.73;5.70;;;;;;;;;;4991582;28;20031;-78
2024/04/09 11:02:47;;;;;;;9.52;6.25;;;;;;;;;;4988976;28;20045;-78
2024/04/09 11:05:14;;;;;;;7.43;5.18;;;;;;;;;;4991371;28;20121;-78
2024/04/09 11:07:40;;;;;;;10.43;5.78;;;;;;;;;;4990361;28;20038;-76
2024/04/09 11:10:07;;;;;;;11.90;5.38;;;;;;;;;;5005373;28;20088;-77
2024/04/09 11:12:34;;;;;;;7.22;4.90;;;;;;;;;;4985887;28;20080;-77
2024/04/09 11:15:00;;;;;;;8.43;5.70;;;;;;;;;;4985747;28;20586;-78
2024/04/09 11:17:29;;;;;;;10.55;6.35;;;;;;;;;;4992008;28;20030;-78
2024/04/09 11:20:09;;;;;;;8.10;5.68;;;;;;;;;;4989902;28;20023;-78
2024/04/09 11:22:45;;;;;;;7.25;5.18;;;;;;;;;;4992562;28;20045;-78
2024/04/09 11:25:14;;;;;;;6.00;5.07;;;;;;;;;;4989534;28;20038;-79
2024/04/09 11:27:40;;;;;;;10.57;5.63;;;;;;;;;;4986964;28;20049;-77
2024/04/09 11:30:11;;;;;;;7.57;5.80;;;;;;;;;;4972160;28;20038;-78
2024/04/09 11:32:37;;;;;;;;;;;;;;;;;;4991992;28;20042;-78
2024/04/09 11:35:03;;;;;;;8.60;5.03;;;;;;;;;;4988683;28;19976;-77
2024/04/09 11:37:30;;;;;;;8.77;5.55;;;;;;;;;;4990706;28;20045;-78
2024/04/09 11:40:00;;;;;;;7.15;6.40;;;;;;;;;;4989591;28;20061;-79
2024/04/09 11:42:29;;;;;;;8.63;5.57;;;;;;;;;;4993470;28;20062;-79
2024/04/09 11:44:58;;;;;;;11.77;6.32;;;;;;;;;;4991097;28;20104;-78
2024/04/09 11:47:24;;;;;;;7.05;6.00;;;;;;;;;;4973597;28;20046;-79
2024/04/09 11:49:50;;;;;;;9.15;6.05;;;;;;;;;;4990031;28;20034;-77
2024/04/09 11:52:16;;;;;;;6.40;5.80;;;;;;;;;;4990282;28;20049;-78
2024/04/09 11:54:42;;;;;;;6.18;5.60;;;;;;;;;;4988015;28;20046;-78
2024/04/09 11:57:08;;;;;;;9.23;5.95;;;;;;;;;;4990181;28;20037;-77
2024/04/09 11:59:34;;;;;;;11.23;6.25;;;;;;;;;;4992593;28;20034;-78
2024/04/09 12:02:00;;;;;;;10.10;6.13;;;;;;;;;;4991325;28;20027;-78
2024/04/09 12:04:26;;;;;;;12.52;6.25;;;;;;;;;;4974570;28;20046;-78
2024/04/09 12:06:52;;;;;;;8.68;6.35;;;;;;;;;;4988579;28;20042;-77
2024/04/09 12:09:18;;;;;;;6.32;5.72;;;;;;;;;;5004694;28;20038;-77
2024/04/09 12:11:44;;;;;;;12.50;5.93;;;;;;;;;;5005434;28;20045;-77
2024/04/09 12:14:10;;;;;;;8.45;6.38;;;;;;;;;;4989919;28;20062;-78
2024/04/09 12:16:42;;;;;;;8.10;6.28;;;;;;;;;;4990054;28;20039;-78
2024/04/09 12:19:09;;;;;;;7.78;6.25;;;;;;;;;;4988590;28;20043;-78
2024/04/09 12:21:35;;;;;;;11.88;5.72;;;;;;;;;;4989706;28;20050;-77
2024/04/09 12:24:01;;;;;;;10.60;6.38;;;;;;;;;;4988181;28;20038;-78
2024/04/09 12:26:26;;;;;;;10.57;8.55;;;;;;;;;;4991579;28;20034;-79
2024/04/09 12:28:57;;;;;;;10.60;6.55;;;;;;;;;;4989411;28;20048;-78
2024/04/09 12:31:23;;;;;;;7.80;5.50;;;;;;;;;;4990004;28;20130;-77
2024/04/09 12:33:49;;;;;;;8.18;7.07;;;;;;;;;;4971669;28;20046;-77
2024/04/09 12:36:15;;;;;;;9.80;6.43;;;;;;;;;;4990034;28;20101;-78
2024/04/09 12:38:41;;;;;;;8.45;6.60;;;;;;;;;;4991170;28;20426;-76
2024/04/09 12:41:06;;;;;;;10.75;6.68;;;;;;;;;;4989261;28;20419;-78
2024/04/09 12:43:32;;;;;;;10.68;7.03;;;;;;;;;;4986915;28;20477;-77
2024/04/09 12:45:59;;;;;;;9.18;6.63;;;;;;;;;;4989748;28;20050;-77
2024/04/09 12:48:25;;;;;;;8.40;5.88;;;;;;;;;;4989060;28;20403;-77
2024/04/09 12:50:51;;;;;;;9.00;7.07;;;;;;;;;;4988169;28;20046;-77
2024/04/09 12:53:16;;;;;;;14.20;6.60;;;;;;;;;;4988125;28;20057;-78
2024/04/09 12:55:45;;;;;;;12.30;6.90;;;;;;;;;;4988140;28;20038;-76
2024/04/09 12:58:11;;;;;;;10.05;7.05;;;;;;;;;;4983534;28;20062;-77
2024/04/09 13:00:36;;;;;;;13.13;6.78;;;;;;;;;;4984986;28;20706;-78
2024/04/09 13:03:04;;;;;;;8.68;6.20;;;;;;;;;;4986497;28;20046;-77
2024/04/09 13:05:30;;;;;;;6.93;6.30;;;;;;;;;;4988082;28;20038;-78
2024/04/09 13:07:56;;;;;;;8.88;6.00;;;;;;;;;;4986301;28;20439;-77
2024/04/09 13:10:22;;;;;;;13.57;5.68;;;;;;;;;;4990228;28;20053;-77
2024/04/09 13:12:47;;;;;;;9.95;5.90;;;;;;;;;;5002637;28;20537;-78
2024/04/09 13:15:14;;;;;;;6.72;5.82;;;;;;;;;;5003904;28;20540;-77
2024/04/09 13:17:41;;;;;;;10.45;6.72;;;;;;;;;;4991210;28;20034;-77
2024/04/09 13:20:08;;;;;;;8.73;6.60;;;;;;;;;;4994437;28;20030;-77
2024/04/09 13:22:33;;;;;;;7.75;5.97;;;;;;;;;;4993497;28;20038;-78
2024/04/09 13:24:59;;;;;;;8.27;6.50;;;;;;;;;;4993290;28;20109;-77
2024/04/09 13:27:25;;;;;;;7.45;6.20;;;;;;;;;;4994500;28;20046;-78
2024/04/09 13:29:51;;;;;;;10.80;6.80;;;;;;;;;;4993583;28;20026;-77
2024/04/09 13:32:18;;;;;;;7.20;6.10;;;;;;;;;;4994047;28;20050;-78
2024/04/09 13:34:44;;;;;;;8.25;6.43;;;;;;;;;;4994013;28;20034;-77
2024/04/09 13:37:10;;;;;;;8.02;5.90;;;;;;;;;;4994382;28;20425;-78
2024/04/09 13:39:45;;;;;;;9.27;5.82;;;;;;;;;;4997842;28;20030;-78
2024/04/09 13:42:43;;;;;;;8.25;6.07;;;;;;;;;;4986642;28;20038;-78
2024/04/09 13:45:09;;;;;;;9.13;5.97;;;;;;;;;;4998736;28;20038;-77
2024/04/09 13:47:38;;;;;;;12.63;7.47;;;;;;;;;;4963989;28;20138;-78
2024/04/09 13:50:09;;;;;;;8.02;5.88;;;;;;;;;;4994368;28;20514;-78
2024/04/09 13:52:35;;;;;;;9.25;5.93;;;;;;;;;;4961164;28;20035;-78
2024/04/09 13:55:06;;;;;;;9.40;5.55;;;;;;;;;;4957284;28;20061;-78
2024/04/09 13:57:32;;;;;;;12.63;5.72;;;;;;;;;;4968649;28;20065;-79
2024/04/09 13:59:59;;;;;;;7.13;5.97;;;;;;;;;;4938007;28;20046;-76
2024/04/09 14:02:25;;;;;;;9.65;6.60;;;;;;;;;;4955414;28;20084;-78
2024/04/09 14:04:53;;;;;;;10.32;7.20;;;;;;;;;;4951401;28;20388;-77
2024/04/09 14:07:19;;;;;;;14.05;8.80;;;;;;;;;;4956575;28;20053;-76
2024/04/09 14:09:45;;;;;;;12.82;8.00;;;;;;;;;;4980983;28;20491;-76
2024/04/09 14:12:11;;;;;;;12.88;8.00;;;;;;;;;;4975719;28;20037;-76
2024/04/09 14:14:37;;;;;;;11.43;8.30;;;;;;;;;;4985304;28;20068;-75
2024/04/09 14:17:04;;;;;;;10.48;7.25;;;;;;;;;;4998094;28;20034;-76
2024/04/09 14:19:31;;;;;;;10.93;5.97;;;;;;;;;;4990078;28;20031;-77
2024/04/09 14:22:01;;;;;;;9.75;6.43;;;;;;;;;;4984134;28;20030;-76
2024/04/09 14:24:27;;;;;;;7.32;6.00;;;;;;;;;;4989087;28;20071;-76
2024/04/09 14:26:53;;;;;;;10.20;5.70;;;;;;;;;;4986766;28;20034;-77
2024/04/09 14:29:19;;;;;;;7.97;5.60;;;;;;;;;;4982856;28;20066;-76
2024/04/09 14:31:45;;;;;;;10.73;6.47;;;;;;;;;;4979911;28;20140;-76
2024/04/09 14:34:11;;;;;;;9.23;5.97;;;;;;;;;;4954875;28;20534;-76
2024/04/09 14:36:37;;;;;;;10.35;6.57;;;;;;;;;;4987313;28;20057;-76